sim
Sign-in with your pilot id or email,
or register
Callsign
Passwort

Schedule Details

Flight Number: DLH1993 (1)
Departure: Cologne Bonn Airport (EDDK) at 19:30
Arrival: Munich Airport (EDDM) at 20:35
Route: Lufthansa Passenger Schedule. Enter filed route here before submitting Pirep.

Weather Information
Getting current METAR information for EDDK 231150Z 25009KT 190V280 CAVOK 25/10 Q1006 NOSIG
Getting current METAR information for EDDM 231150Z 24006KT 220V320 9999 FEW010 BKN030 18/16 Q1010 TEMPO SHRA BKN020CB

Schedule Frequency

Route Map